createdAt,value
2022-11-04T00:01:48.716Z,24.60
2022-11-04T00:04:16.742Z,25.30
2022-11-04T00:06:43.802Z,28.50
2022-11-04T00:09:12.074Z,25.40
2022-11-04T00:11:57.551Z,23.47
2022-11-04T00:14:24.436Z,25.23
2022-11-04T00:17:10.187Z,24.20
2022-11-04T00:19:55.664Z,35.60
2022-11-04T00:22:41.122Z,24.77
2022-11-04T00:25:27.334Z,28.33
2022-11-04T00:28:20.412Z,24.17
2022-11-04T00:30:47.185Z,24.87
2022-11-04T00:33:27.169Z,23.50
2022-11-04T00:35:55.338Z,26.33
2022-11-04T00:38:22.988Z,24.63
2022-11-04T00:40:50.047Z,24.43
2022-11-04T00:43:16.881Z,24.63
2022-11-04T00:45:43.839Z,29.03
2022-11-04T00:48:11.011Z,25.93
2022-11-04T00:50:38.164Z,24.27
2022-11-04T00:53:05.348Z,23.70
2022-11-04T00:55:32.325Z,28.87
2022-11-04T00:57:59.415Z,28.37
2022-11-04T01:00:26.205Z,22.57
2022-11-04T01:02:52.932Z,23.53
2022-11-04T01:05:19.842Z,24.27
2022-11-04T01:07:46.577Z,27.43
2022-11-04T01:10:13.580Z,21.37
2022-11-04T01:12:40.523Z,36.80
2022-11-04T01:15:07.707Z,24.23
2022-11-04T01:17:34.437Z,25.30
2022-11-04T01:20:01.276Z,26.07
2022-11-04T01:22:28.094Z,29.87
2022-11-04T01:24:54.876Z,26.27
2022-11-04T01:27:21.741Z,23.30
2022-11-04T01:29:48.553Z,27.00
2022-11-04T01:32:15.289Z,25.87
2022-11-04T01:34:43.572Z,26.13
2022-11-04T01:37:10.704Z,23.50
2022-11-04T01:39:37.529Z,25.00
2022-11-04T01:44:42.505Z,26.90
2022-11-04T01:47:28.147Z,24.43
2022-11-04T01:49:57.949Z,21.17
2022-11-04T01:52:29.922Z,18.93
2022-11-04T01:54:58.212Z,23.73
2022-11-04T01:57:33.419Z,24.30
2022-11-04T02:00:01.677Z,21.40
2022-11-04T02:02:42.212Z,23.73
2022-11-04T02:05:09.215Z,20.30
2022-11-04T02:07:36.459Z,23.97
2022-11-04T02:10:03.748Z,24.40
2022-11-04T02:12:48.872Z,24.70
2022-11-04T02:15:16.946Z,24.10
2022-11-04T02:17:57.114Z,20.77
2022-11-04T02:20:36.050Z,22.70
2022-11-04T02:23:12.079Z,21.33
2022-11-04T02:26:09.293Z,21.47
2022-11-04T02:28:45.344Z,17.90
2022-11-04T02:31:19.680Z,24.33
2022-11-04T02:34:18.754Z,23.03
2022-11-04T02:36:54.347Z,24.00
2022-11-04T02:39:24.201Z,24.53
2022-11-04T02:41:59.862Z,21.73
2022-11-04T02:44:49.330Z,22.03
2022-11-04T02:47:17.490Z,23.90
2022-11-04T02:49:48.043Z,19.47
2022-11-04T02:52:16.708Z,21.00
2022-11-04T02:54:43.632Z,21.63
2022-11-04T02:57:13.625Z,18.93
2022-11-04T03:00:06.462Z,21.30
2022-11-04T03:02:39.738Z,23.40
2022-11-04T03:05:08.512Z,18.80
2022-11-04T03:07:38.212Z,21.97
2022-11-04T03:10:06.817Z,25.23
2022-11-04T03:12:37.578Z,19.33
2022-11-04T03:15:07.765Z,22.37
2022-11-04T03:17:57.732Z,22.57
2022-11-04T03:20:27.900Z,20.87
2022-11-04T03:22:59.912Z,22.40
2022-11-04T03:25:28.996Z,19.77
2022-11-04T03:28:01.689Z,23.87
2022-11-04T03:30:32.128Z,23.07
2022-11-04T03:33:19.486Z,16.70
2022-11-04T03:35:46.547Z,18.93
2022-11-04T03:38:13.400Z,21.67
2022-11-04T03:40:40.521Z,19.90
2022-11-04T03:43:12.650Z,19.50
2022-11-04T03:45:39.703Z,22.83
2022-11-04T03:48:06.941Z,18.37
2022-11-04T03:50:39.523Z,20.43
2022-11-04T03:53:06.652Z,20.00
2022-11-04T03:55:40.256Z,16.23
2022-11-04T03:58:24.696Z,22.93
2022-11-04T04:00:54.466Z,23.03
2022-11-04T04:03:25.605Z,22.63
2022-11-04T04:05:57.200Z,20.33
2022-11-04T04:08:34.026Z,16.07
2022-11-04T04:11:19.671Z,21.77
2022-11-04T04:13:46.581Z,22.97
2022-11-04T04:16:27.066Z,20.03
2022-11-04T04:18:58.593Z,16.47
2022-11-04T04:21:44.530Z,18.10
2022-11-04T04:24:30.781Z,19.07
2022-11-04T04:27:17.082Z,20.10
2022-11-04T04:29:44.518Z,21.07
2022-11-04T04:32:11.729Z,19.67
2022-11-04T04:34:38.734Z,17.90
2022-11-04T04:37:11.814Z,19.67
2022-11-04T04:40:32.512Z,23.23
2022-11-04T04:43:18.169Z,24.83
2022-11-04T04:45:54.130Z,26.43
2022-11-04T04:48:20.911Z,24.60
2022-11-04T04:50:49.784Z,26.00
2022-11-04T04:53:16.662Z,32.00
2022-11-04T04:55:43.396Z,22.27
2022-11-04T04:58:10.536Z,22.17
2022-11-04T05:00:37.467Z,31.10
2022-11-04T05:03:04.843Z,36.47
2022-11-04T05:05:31.715Z,35.10
2022-11-04T05:08:08.999Z,24.10
2022-11-04T05:10:36.103Z,21.93
2022-11-04T05:13:21.579Z,25.30
2022-11-04T05:15:48.425Z,20.17
2022-11-04T05:18:15.165Z,18.93
2022-11-04T05:20:42.175Z,17.40
2022-11-04T05:23:12.143Z,20.47
2022-11-04T05:25:43.292Z,17.90
2022-11-04T05:28:10.791Z,18.50
2022-11-04T05:30:38.794Z,17.03
2022-11-04T05:33:05.974Z,15.50
2022-11-04T05:35:33.414Z,15.73
2022-11-04T05:38:00.292Z,17.53
2022-11-04T05:40:27.112Z,19.33
2022-11-04T05:42:54.088Z,18.60
2022-11-04T05:45:20.804Z,16.73
2022-11-04T05:47:47.646Z,18.20
2022-11-04T05:50:14.422Z,17.27
2022-11-04T05:52:41.310Z,15.93
2022-11-04T05:55:08.300Z,18.73
2022-11-04T05:57:35.896Z,16.93
2022-11-04T06:00:02.804Z,19.33
2022-11-04T06:02:31.245Z,17.07
2022-11-04T06:04:58.076Z,14.43
2022-11-04T06:07:24.940Z,16.90
2022-11-04T06:09:51.668Z,16.00
2022-11-04T06:12:18.595Z,18.90
2022-11-04T06:14:45.392Z,24.17
2022-11-04T06:17:16.488Z,21.67
2022-11-04T06:19:43.859Z,20.20
2022-11-04T06:22:17.856Z,20.20
2022-11-04T06:24:45.035Z,21.87
2022-11-04T06:27:11.836Z,19.77
2022-11-04T06:29:41.284Z,22.80
2022-11-04T06:32:08.958Z,23.07
2022-11-04T06:34:35.762Z,19.77
2022-11-04T06:37:03.135Z,22.07
2022-11-04T06:39:29.880Z,15.43
2022-11-04T06:41:59.688Z,17.67
2022-11-04T06:44:29.412Z,18.33
2022-11-04T06:46:56.161Z,18.43
2022-11-04T06:49:23.547Z,17.33
2022-11-04T06:51:50.554Z,18.20
2022-11-04T06:54:17.712Z,36.57
2022-11-04T06:56:44.623Z,43.07
2022-11-04T06:59:19.000Z,38.57
2022-11-04T07:01:46.363Z,28.17
2022-11-04T07:04:13.234Z,35.93
2022-11-04T07:06:44.123Z,35.07
2022-11-04T07:09:12.850Z,36.67
2022-11-04T07:11:40.314Z,30.70
2022-11-04T07:14:09.092Z,29.27
2022-11-04T07:16:36.050Z,29.10
2022-11-04T07:19:03.430Z,24.63
2022-11-04T07:21:30.278Z,21.27
2022-11-04T07:23:57.604Z,23.60
2022-11-04T07:26:24.560Z,19.30
2022-11-04T07:28:51.450Z,17.93
2022-11-04T07:31:18.697Z,18.57
2022-11-04T07:33:50.297Z,19.17
2022-11-04T07:36:17.880Z,18.73
2022-11-04T07:38:44.849Z,17.07
2022-11-04T07:41:12.124Z,21.13
2022-11-04T07:43:39.449Z,20.27
2022-11-04T07:46:07.485Z,18.23
2022-11-04T07:48:35.141Z,19.67
2022-11-04T07:51:02.926Z,17.90
2022-11-04T07:53:29.869Z,25.13
2022-11-04T07:55:57.450Z,20.57
2022-11-04T07:58:25.833Z,15.13
2022-11-04T08:00:58.216Z,17.93
2022-11-04T08:03:25.158Z,21.20
2022-11-04T08:05:55.896Z,17.27
2022-11-04T08:08:22.762Z,19.80
2022-11-04T08:11:00.698Z,16.17
2022-11-04T08:13:28.233Z,17.47
2022-11-04T08:15:55.351Z,23.43
2022-11-04T08:18:22.303Z,16.30
2022-11-04T08:20:50.307Z,17.43
2022-11-04T08:23:17.750Z,16.10
2022-11-04T08:25:45.028Z,18.93
2022-11-04T08:28:17.826Z,15.03
2022-11-04T08:30:55.658Z,22.47
2022-11-04T08:33:23.965Z,15.47
2022-11-04T08:35:50.794Z,17.30
2022-11-04T08:38:17.830Z,19.13
2022-11-04T08:40:44.585Z,16.40
2022-11-04T08:43:11.705Z,19.33
2022-11-04T08:45:43.315Z,18.70
2022-11-04T08:48:10.575Z,20.07
2022-11-04T08:50:37.523Z,20.00
2022-11-04T08:53:05.323Z,20.73
2022-11-04T08:55:32.528Z,15.97
2022-11-04T08:57:59.945Z,19.53
2022-11-04T09:00:27.246Z,14.67
2022-11-04T09:02:55.734Z,24.17
2022-11-04T09:05:22.833Z,17.40
2022-11-04T09:07:50.142Z,19.70
2022-11-04T09:10:17.499Z,19.77
2022-11-04T09:12:44.910Z,16.87
2022-11-04T09:15:12.599Z,14.17
2022-11-04T09:17:39.480Z,20.27
2022-11-04T09:20:06.670Z,18.77
2022-11-04T09:22:33.675Z,21.80
2022-11-04T09:25:00.450Z,18.73
2022-11-04T09:27:27.312Z,19.80
2022-11-04T09:29:54.136Z,14.93
2022-11-04T09:32:21.055Z,16.10
2022-11-04T09:34:47.818Z,19.00
2022-11-04T09:37:16.094Z,19.50
2022-11-04T09:39:42.865Z,18.60
2022-11-04T09:42:11.207Z,17.10
2022-11-04T09:45:07.350Z,16.10
2022-11-04T09:47:33.048Z,18.43
2022-11-04T09:50:01.341Z,18.90
2022-11-04T09:52:30.222Z,15.53
2022-11-04T09:55:15.355Z,20.43
2022-11-04T09:57:42.409Z,16.03
2022-11-04T10:00:16.617Z,19.73
2022-11-04T10:02:47.016Z,17.57
2022-11-04T10:05:17.018Z,15.73
2022-11-04T10:07:46.975Z,14.30
2022-11-04T10:10:16.910Z,19.83
2022-11-04T10:12:51.827Z,13.57
2022-11-04T10:15:29.577Z,17.43
2022-11-04T10:18:05.495Z,14.93
2022-11-04T10:20:47.897Z,19.93
2022-11-04T10:23:23.511Z,16.83
2022-11-04T10:25:57.109Z,14.50
2022-11-04T10:28:28.337Z,15.10
2022-11-04T10:30:56.321Z,18.10
2022-11-04T10:33:31.718Z,17.33
2022-11-04T10:36:09.477Z,18.80
2022-11-04T10:38:37.058Z,16.17
2022-11-04T10:41:13.213Z,15.57
2022-11-04T10:43:41.137Z,17.13
2022-11-04T10:46:17.431Z,20.77
2022-11-04T10:49:04.448Z,16.87
2022-11-04T10:51:31.720Z,16.20
2022-11-04T10:54:00.249Z,15.57
2022-11-04T10:56:30.243Z,19.47
2022-11-04T10:58:57.860Z,17.13
2022-11-04T11:01:29.978Z,18.53
2022-11-04T11:03:57.704Z,15.57
2022-11-04T11:06:24.788Z,16.63
2022-11-04T11:08:53.534Z,16.47
2022-11-04T11:11:38.008Z,16.83
2022-11-04T11:14:04.962Z,15.87
2022-11-04T11:16:32.631Z,19.10
2022-11-04T11:19:12.342Z,13.03
2022-11-04T11:21:44.423Z,18.83
2022-11-04T11:24:34.199Z,17.07
2022-11-04T11:27:03.426Z,14.57
2022-11-04T11:29:42.350Z,18.37
2022-11-04T11:32:28.383Z,18.93
2022-11-04T11:34:55.278Z,14.90
2022-11-04T11:37:25.446Z,20.00
2022-11-04T11:39:52.386Z,18.13
2022-11-04T11:42:21.849Z,14.53
2022-11-04T11:44:50.452Z,18.80
2022-11-04T11:47:22.441Z,20.50
2022-11-04T11:50:12.398Z,16.33
2022-11-04T11:52:40.403Z,22.67
2022-11-04T11:55:23.834Z,17.33
2022-11-04T12:01:06.692Z,13.87
2022-11-04T12:09:41.955Z,15.83
2022-11-04T12:12:21.164Z,22.93
2022-11-04T12:15:06.856Z,17.53
2022-11-04T12:17:55.942Z,20.57
2022-11-04T12:20:22.844Z,20.43
2022-11-04T12:23:19.915Z,22.00
2022-11-04T12:25:52.687Z,22.07
2022-11-04T12:28:22.470Z,20.87
2022-11-04T12:30:57.974Z,22.77
2022-11-04T12:33:30.592Z,25.47
2022-11-04T12:36:15.513Z,26.30
2022-11-04T12:39:10.445Z,27.67
2022-11-04T12:41:59.388Z,25.97
2022-11-04T12:44:24.740Z,23.50
2022-11-04T12:46:54.540Z,27.50
2022-11-04T12:49:27.759Z,27.30
2022-11-04T12:52:13.055Z,23.10
2022-11-04T12:54:43.019Z,25.80
2022-11-04T12:57:19.320Z,23.77
2022-11-04T12:59:58.293Z,24.40
2022-11-04T13:02:28.543Z,28.13
2022-11-04T13:05:27.811Z,23.80
2022-11-04T13:08:15.332Z,23.13
2022-11-04T13:10:42.392Z,27.73
2022-11-04T13:13:10.090Z,24.90
2022-11-04T13:15:49.021Z,24.73
2022-11-04T13:18:19.150Z,23.67
2022-11-04T13:20:50.713Z,23.97
2022-11-04T13:23:24.722Z,27.67
2022-11-04T13:25:51.750Z,24.03
2022-11-04T13:28:20.159Z,23.50
2022-11-04T13:30:56.322Z,23.37
2022-11-04T13:33:23.108Z,26.23
2022-11-04T13:35:49.934Z,26.43
2022-11-04T13:38:25.690Z,21.70
2022-11-04T13:41:02.107Z,30.73
2022-11-04T13:43:38.388Z,22.80
2022-11-04T13:46:11.164Z,23.27
2022-11-04T13:48:42.906Z,22.77
2022-11-04T13:51:11.646Z,25.00
2022-11-04T13:53:43.030Z,24.43
2022-11-04T13:56:32.157Z,27.77
2022-11-04T13:59:17.819Z,23.10
2022-11-04T14:01:44.797Z,25.10
2022-11-04T14:04:15.573Z,24.03
2022-11-04T14:06:55.960Z,24.73
2022-11-04T14:09:36.966Z,26.53
2022-11-04T14:12:19.063Z,24.40
2022-11-04T14:15:07.478Z,33.17
2022-11-04T14:17:34.535Z,30.73
2022-11-04T14:20:01.463Z,28.17
2022-11-04T14:22:34.240Z,28.37
2022-11-04T14:25:03.252Z,23.77
2022-11-04T14:27:39.202Z,26.27
2022-11-04T14:30:06.892Z,28.83
2022-11-04T14:32:38.136Z,25.40
2022-11-04T14:35:06.268Z,29.07
2022-11-04T14:37:35.009Z,27.10
2022-11-04T14:40:04.424Z,34.77
2022-11-04T14:42:45.583Z,31.33
2022-11-04T14:45:32.625Z,25.17
2022-11-04T14:48:16.246Z,48.37
2022-11-04T14:50:45.335Z,26.90
2022-11-04T14:53:17.909Z,26.97
2022-11-04T14:55:45.772Z,59.80
2022-11-04T14:58:25.778Z,58.37
2022-11-04T15:01:02.745Z,44.63
2022-11-04T15:06:34.813Z,68.10
2022-11-04T15:09:24.679Z,76.17
2022-11-04T15:12:13.907Z,76.03
2022-11-04T15:14:40.807Z,101.97
2022-11-04T15:17:07.667Z,168.17
2022-11-04T15:19:35.750Z,156.50
2022-11-04T15:22:06.665Z,98.13
2022-11-04T15:24:34.842Z,77.93
2022-11-04T15:27:04.908Z,55.53
2022-11-04T15:29:31.973Z,99.17
2022-11-04T15:31:59.955Z,711.93
2022-11-04T15:34:28.036Z,264.83
2022-11-04T15:36:55.758Z,213.00
2022-11-04T15:39:43.880Z,424.30
2022-11-04T15:42:35.706Z,264.83
2022-11-04T15:45:17.959Z,143.73
2022-11-04T15:47:44.981Z,100.20
2022-11-04T15:50:24.959Z,45.87
2022-11-04T15:52:53.928Z,47.37
2022-11-04T15:55:21.726Z,49.30
2022-11-04T15:57:50.173Z,43.77
2022-11-04T16:00:17.708Z,38.23
2022-11-04T16:02:49.123Z,37.77
2022-11-04T16:05:16.059Z,51.67
2022-11-04T16:07:43.772Z,51.90
2022-11-04T16:10:25.805Z,51.73
2022-11-04T16:13:16.188Z,56.03
2022-11-04T16:15:43.007Z,60.73
2022-11-04T16:18:23.454Z,50.70
2022-11-04T16:20:53.184Z,43.87
2022-11-04T16:23:25.241Z,41.17
2022-11-04T16:25:59.973Z,45.43
2022-11-04T16:28:28.861Z,75.77
2022-11-04T16:30:56.861Z,91.90
2022-11-04T16:33:23.739Z,105.57
2022-11-04T16:35:50.612Z,119.03
2022-11-04T16:38:17.397Z,122.17
2022-11-04T16:40:46.141Z,111.37
2022-11-04T16:43:13.785Z,176.23
2022-11-04T16:45:47.263Z,151.47
2022-11-04T16:48:17.099Z,132.20
2022-11-04T16:50:44.229Z,137.30
2022-11-04T16:53:11.362Z,98.30
2022-11-04T16:55:42.382Z,74.53
2022-11-04T16:58:16.135Z,66.53
2022-11-04T17:00:43.222Z,64.37
2022-11-04T17:03:23.859Z,56.57
2022-11-04T17:05:51.882Z,63.00
2022-11-04T17:08:18.653Z,66.13
2022-11-04T17:10:45.833Z,68.80
2022-11-04T17:13:13.309Z,72.13
2022-11-04T17:15:40.761Z,72.80
2022-11-04T17:18:07.629Z,68.63
2022-11-04T17:20:34.407Z,69.07
2022-11-04T17:23:01.347Z,78.67
2022-11-04T17:25:29.645Z,78.77
2022-11-04T17:27:56.556Z,83.17
2022-11-04T17:30:23.728Z,89.33
2022-11-04T17:32:50.725Z,105.20
2022-11-04T17:35:17.955Z,98.70
2022-11-04T17:37:44.796Z,99.47
2022-11-04T17:40:14.602Z,86.60
2022-11-04T17:43:00.091Z,90.63
2022-11-04T17:45:27.054Z,92.83
2022-11-04T17:47:53.787Z,90.07
2022-11-04T17:50:20.646Z,82.77
2022-11-04T17:52:49.339Z,68.03
2022-11-04T17:55:18.786Z,62.27
2022-11-04T17:57:47.575Z,60.60
2022-11-04T18:00:14.789Z,60.97
2022-11-04T18:02:41.950Z,56.97
2022-11-04T18:05:09.433Z,70.57
2022-11-04T18:07:36.273Z,56.67
2022-11-04T18:10:03.173Z,52.77
2022-11-04T18:12:41.490Z,62.37
2022-11-04T18:15:10.351Z,51.07
2022-11-04T18:17:40.631Z,51.57
2022-11-04T18:20:13.936Z,44.20
2022-11-04T18:22:42.037Z,73.63
2022-11-04T18:25:09.446Z,51.07
2022-11-04T18:27:36.452Z,62.83
2022-11-04T18:30:03.351Z,53.30
2022-11-04T18:32:30.250Z,50.97
2022-11-04T18:34:57.793Z,46.60
2022-11-04T18:37:24.723Z,56.07
2022-11-04T18:39:51.584Z,73.00
2022-11-04T18:42:18.422Z,92.47
2022-11-04T18:44:45.218Z,63.53
2022-11-04T18:47:11.988Z,65.80
2022-11-04T18:49:38.763Z,97.43
2022-11-04T18:52:05.833Z,88.13
2022-11-04T18:54:32.627Z,111.70
2022-11-04T18:56:59.502Z,137.63
2022-11-04T18:59:26.271Z,150.00
2022-11-04T19:01:53.474Z,143.80
2022-11-04T19:04:20.398Z,169.17
2022-11-04T19:06:47.227Z,116.37
2022-11-04T19:12:21.294Z,68.93
2022-11-04T19:14:48.329Z,72.97
2022-11-04T19:17:15.161Z,70.37
2022-11-04T19:19:42.997Z,74.20
2022-11-04T19:22:10.417Z,67.30
2022-11-04T19:24:43.737Z,79.97
2022-11-04T19:27:10.585Z,64.33
2022-11-04T19:29:37.401Z,61.43
2022-11-04T19:32:05.503Z,45.37
2022-11-04T19:34:34.261Z,52.70
2022-11-04T19:37:00.978Z,53.57
2022-11-04T19:39:28.138Z,52.03
2022-11-04T19:42:13.489Z,61.57
2022-11-04T19:44:40.466Z,52.97
2022-11-04T19:47:07.984Z,51.50
2022-11-04T19:49:34.796Z,49.90
2022-11-04T19:52:01.695Z,53.20
2022-11-04T19:54:28.767Z,49.27
2022-11-04T19:56:55.518Z,52.17
2022-11-04T19:59:22.855Z,45.60
2022-11-04T20:01:50.756Z,49.73
2022-11-04T20:04:17.666Z,47.90
2022-11-04T20:06:44.507Z,48.73
2022-11-04T20:09:11.439Z,48.30
2022-11-04T20:11:57.480Z,47.23
2022-11-04T20:14:24.420Z,50.43
2022-11-04T20:16:51.198Z,44.83
2022-11-04T20:19:22.462Z,46.23
2022-11-04T20:21:49.763Z,46.87
2022-11-04T20:24:17.087Z,47.20
2022-11-04T20:26:44.427Z,46.07
2022-11-04T20:29:11.496Z,49.07
2022-11-04T20:31:39.659Z,50.43
2022-11-04T20:34:08.368Z,52.10
2022-11-04T20:36:35.973Z,43.90
2022-11-04T20:39:05.027Z,44.10
2022-11-04T20:41:32.174Z,43.80
2022-11-04T20:43:59.135Z,49.03
2022-11-04T20:46:27.500Z,45.10
2022-11-04T20:48:54.749Z,40.70
2022-11-04T20:51:25.440Z,44.27
2022-11-04T20:53:56.433Z,49.90
2022-11-04T20:56:24.676Z,37.03
2022-11-04T20:58:57.618Z,39.60
2022-11-04T21:01:27.731Z,36.60
2022-11-04T21:04:21.059Z,37.73
2022-11-04T21:06:48.904Z,33.93
2022-11-04T21:09:16.350Z,34.77
2022-11-04T21:11:43.588Z,35.17
2022-11-04T21:14:12.405Z,35.47
2022-11-04T21:16:39.503Z,32.47
2022-11-04T21:19:06.894Z,32.50
2022-11-04T21:21:33.758Z,37.50
2022-11-04T21:24:01.754Z,39.97
2022-11-04T21:26:29.452Z,35.07
2022-11-04T21:29:03.275Z,37.87
2022-11-04T21:31:30.895Z,38.63
2022-11-04T21:33:58.012Z,34.07
2022-11-04T21:36:24.766Z,37.30
2022-11-04T21:38:51.709Z,35.20
2022-11-04T21:41:23.175Z,37.03
2022-11-04T21:43:59.810Z,35.73
2022-11-04T21:46:27.229Z,38.10
2022-11-04T21:48:55.299Z,36.37
2022-11-04T21:51:23.451Z,35.97
2022-11-04T21:53:50.487Z,37.60
2022-11-04T21:56:33.214Z,38.63
2022-11-04T21:59:00.264Z,39.97
2022-11-04T22:01:27.981Z,36.50
2022-11-04T22:03:56.684Z,35.57
2022-11-04T22:06:24.936Z,36.67
2022-11-04T22:08:56.499Z,33.67
2022-11-04T22:11:25.270Z,30.73
2022-11-04T22:14:02.239Z,33.53
2022-11-04T22:16:30.088Z,32.93
2022-11-04T22:18:58.051Z,33.13
2022-11-04T22:21:25.530Z,24.57
2022-11-04T22:23:52.544Z,30.27
2022-11-04T22:26:20.688Z,28.43
2022-11-04T22:28:47.709Z,30.70
2022-11-04T22:31:19.055Z,21.50
2022-11-04T22:33:46.017Z,23.33
2022-11-04T22:36:13.264Z,23.97
2022-11-04T22:38:40.826Z,19.40
2022-11-04T22:41:08.888Z,17.30
2022-11-04T22:43:36.182Z,18.53
2022-11-04T22:46:05.002Z,16.83
2022-11-04T22:48:31.864Z,24.43
2022-11-04T22:50:59.148Z,15.43
2022-11-04T22:53:25.996Z,16.07
2022-11-04T22:55:53.328Z,15.67
2022-11-04T22:58:20.089Z,15.93
2022-11-04T23:00:53.466Z,15.63
2022-11-04T23:03:20.319Z,15.53
2022-11-04T23:05:47.292Z,16.80
2022-11-04T23:08:14.025Z,16.90
2022-11-04T23:10:59.129Z,17.53
2022-11-04T23:13:44.545Z,16.23
2022-11-04T23:16:30.302Z,14.73
2022-11-04T23:18:57.128Z,11.70
2022-11-04T23:21:42.237Z,14.13
2022-11-04T23:24:27.633Z,14.20
2022-11-04T23:26:54.653Z,7.63
2022-11-04T23:29:39.923Z,9.50
2022-11-04T23:32:06.850Z,6.43
2022-11-04T23:34:52.175Z,7.40
2022-11-04T23:37:18.990Z,7.10
2022-11-04T23:39:45.761Z,7.77
2022-11-04T23:42:16.368Z,5.20
2022-11-04T23:45:02.535Z,7.70
2022-11-04T23:47:48.178Z,5.47
2022-11-04T23:50:34.062Z,4.53
2022-11-04T23:53:20.505Z,7.13
2022-11-04T23:56:06.427Z,6.13
2022-11-04T23:58:51.682Z,6.93
